createdAt,value
2018-08-23T00:01:29.652Z,51.26
2018-08-23T00:04:03.254Z,50.65
2018-08-23T00:06:31.979Z,51.32
2018-08-23T00:09:00.539Z,50.77
2018-08-23T00:11:31.754Z,51.64
2018-08-23T00:14:00.301Z,51.02
2018-08-23T00:16:35.295Z,51.17
2018-08-23T00:19:04.780Z,51.05
2018-08-23T00:21:37.916Z,51.99
2018-08-23T00:24:09.805Z,51.11
2018-08-23T00:26:39.809Z,52.04
2018-08-23T00:29:14.761Z,51.26
2018-08-23T00:31:43.397Z,51.92
2018-08-23T00:34:12.163Z,52.13
2018-08-23T00:36:40.754Z,52.25
2018-08-23T00:39:10.232Z,52.27
2018-08-23T00:41:38.980Z,52.27
2018-08-23T00:44:07.577Z,52.14
2018-08-23T00:46:36.466Z,51.43
2018-08-23T00:49:05.128Z,52.26
2018-08-23T00:51:38.066Z,51.51
2018-08-23T00:54:06.805Z,51.71
2018-08-23T00:56:35.440Z,52.04
2018-08-23T00:59:04.529Z,51.37
2018-08-23T01:01:33.728Z,51.49
2018-08-23T01:04:02.265Z,51.52
2018-08-23T01:06:40.124Z,52.28
2018-08-23T01:09:10.753Z,52.49
2018-08-23T01:11:40.270Z,51.93
2018-08-23T01:14:09.427Z,52.64
2018-08-23T01:16:38.083Z,52.12
2018-08-23T01:19:12.020Z,52.40
2018-08-23T01:22:00.483Z,53.15
2018-08-23T01:24:30.859Z,53.52
2018-08-23T01:26:59.462Z,53.52
2018-08-23T01:29:29.218Z,53.51
2018-08-23T01:32:16.825Z,52.65
2018-08-23T01:34:45.453Z,53.81
2018-08-23T01:37:24.642Z,54.16
2018-08-23T01:39:53.268Z,54.32
2018-08-23T01:42:25.015Z,54.13
2018-08-23T01:44:53.638Z,53.60
2018-08-23T01:47:22.359Z,54.16
2018-08-23T01:49:51.009Z,53.96
2018-08-23T01:52:19.639Z,53.79
2018-08-23T01:54:48.198Z,54.67
2018-08-23T01:57:21.308Z,54.88
2018-08-23T01:59:49.897Z,54.44
2018-08-23T02:02:18.559Z,54.25
2018-08-23T02:04:48.160Z,55.21
2018-08-23T02:07:16.771Z,54.58
2018-08-23T02:09:45.303Z,54.54
2018-08-23T02:12:14.014Z,54.95
2018-08-23T02:14:45.805Z,55.95
2018-08-23T02:17:15.022Z,55.23
2018-08-23T02:19:48.153Z,55.35
2018-08-23T02:22:16.835Z,55.18
2018-08-23T02:24:49.116Z,55.95
2018-08-23T02:27:19.345Z,56.32
2018-08-23T02:29:49.546Z,56.30
2018-08-23T02:32:18.158Z,55.54
2018-08-23T02:34:47.871Z,55.77
2018-08-23T02:37:17.420Z,55.75
2018-08-23T02:39:47.705Z,55.71
2018-08-23T02:42:18.135Z,56.47
2018-08-23T02:44:47.766Z,56.10
2018-08-23T02:47:16.813Z,56.77
2018-08-23T02:49:45.415Z,56.10
2018-08-23T02:52:14.127Z,57.04
2018-08-23T02:54:42.815Z,56.62
2018-08-23T02:57:12.267Z,57.18
2018-08-23T02:59:40.872Z,57.24
2018-08-23T03:02:14.111Z,57.29
2018-08-23T03:04:42.798Z,56.53
2018-08-23T03:07:11.424Z,56.66
2018-08-23T03:09:41.112Z,57.24
2018-08-23T03:12:13.010Z,57.72
2018-08-23T03:14:42.034Z,57.69
2018-08-23T03:17:20.812Z,57.12
2018-08-23T03:20:18.525Z,57.61
2018-08-23T03:22:48.496Z,57.56
2018-08-23T03:25:18.512Z,58.33
2018-08-23T03:27:47.079Z,57.15
2018-08-23T03:30:16.880Z,57.53
2018-08-23T03:32:45.508Z,57.95
2018-08-23T03:35:14.079Z,57.42
2018-08-23T03:37:42.619Z,57.93
2018-08-23T03:40:12.631Z,57.44
2018-08-23T03:42:41.429Z,57.64
2018-08-23T03:45:15.703Z,57.56
2018-08-23T03:47:49.610Z,57.79
2018-08-23T03:50:18.411Z,57.98
2018-08-23T03:52:48.360Z,57.98
2018-08-23T03:55:20.006Z,58.34
2018-08-23T03:57:52.675Z,57.93
2018-08-23T04:00:27.040Z,58.89
2018-08-23T04:02:56.082Z,58.56
2018-08-23T04:05:24.674Z,58.88
2018-08-23T04:07:53.226Z,58.19
2018-08-23T04:10:21.887Z,58.75
2018-08-23T04:12:50.495Z,58.98
2018-08-23T04:15:27.978Z,59.22
2018-08-23T04:17:56.668Z,58.67
2018-08-23T04:20:25.378Z,59.33
2018-08-23T04:22:54.106Z,58.48
2018-08-23T04:25:22.791Z,58.81
2018-08-23T04:27:51.425Z,59.41
2018-08-23T04:30:20.277Z,59.50
2018-08-23T04:32:49.658Z,59.38
2018-08-23T04:35:23.528Z,59.53
2018-08-23T04:37:52.515Z,59.66
2018-08-23T04:40:21.234Z,59.44
2018-08-23T04:42:49.944Z,59.05
2018-08-23T04:45:26.708Z,59.68
2018-08-23T04:48:00.576Z,59.37
2018-08-23T04:50:29.335Z,58.94
2018-08-23T04:52:58.124Z,59.06
2018-08-23T04:55:27.317Z,59.74
2018-08-23T04:57:56.824Z,59.76
2018-08-23T05:00:25.982Z,59.64
2018-08-23T05:02:54.671Z,59.78
2018-08-23T05:05:23.254Z,59.24
2018-08-23T05:07:52.113Z,58.94
2018-08-23T05:10:20.684Z,58.77
2018-08-23T05:12:49.276Z,59.24
2018-08-23T05:15:17.883Z,58.53
2018-08-23T05:17:46.450Z,58.42
2018-08-23T05:20:15.225Z,59.22
2018-08-23T05:22:51.692Z,58.44
2018-08-23T05:25:22.389Z,58.78
2018-08-23T05:28:07.313Z,58.05
2018-08-23T05:30:35.872Z,58.65
2018-08-23T05:33:21.251Z,58.44
2018-08-23T05:35:49.910Z,58.52
2018-08-23T05:38:19.266Z,57.82
2018-08-23T05:40:53.999Z,57.74
2018-08-23T05:43:23.401Z,57.78
2018-08-23T05:45:54.207Z,57.77
2018-08-23T05:48:32.098Z,57.24
2018-08-23T05:51:06.666Z,57.97
2018-08-23T05:53:39.640Z,57.07
2018-08-23T05:56:08.764Z,57.75
2018-08-23T05:58:37.334Z,57.27
2018-08-23T06:01:06.055Z,57.08
2018-08-23T06:03:36.090Z,55.82
2018-08-23T06:06:04.719Z,55.78
2018-08-23T06:08:33.364Z,55.97
2018-08-23T06:11:06.109Z,55.40
2018-08-23T06:13:34.788Z,54.87
2018-08-23T06:16:03.408Z,54.52
2018-08-23T06:18:31.941Z,53.87
2018-08-23T06:21:00.730Z,54.13
2018-08-23T06:26:43.505Z,52.95
2018-08-23T06:29:15.904Z,51.70
2018-08-23T06:31:50.634Z,49.46
2018-08-23T06:34:19.257Z,49.72
2018-08-23T06:36:48.230Z,48.40
2018-08-23T06:39:16.836Z,46.47
2018-08-23T06:41:45.672Z,46.73
2018-08-23T06:44:14.311Z,46.43
2018-08-23T06:46:42.913Z,44.93
2018-08-23T06:49:11.496Z,44.83
2018-08-23T06:51:40.193Z,43.76
2018-08-23T06:54:08.815Z,42.44
2018-08-23T06:56:38.696Z,42.14
2018-08-23T06:59:07.699Z,41.57
2018-08-23T07:01:41.546Z,40.66
2018-08-23T07:04:14.068Z,39.38
2018-08-23T07:06:42.803Z,39.42
2018-08-23T07:09:15.604Z,38.27
2018-08-23T07:11:44.394Z,37.39
2018-08-23T07:14:16.245Z,36.21
2018-08-23T07:16:46.209Z,35.64
2018-08-23T07:19:33.335Z,34.06
2018-08-23T07:22:02.940Z,33.37
2018-08-23T07:24:42.215Z,33.71
2018-08-23T07:27:11.929Z,32.59
2018-08-23T07:29:40.588Z,31.70
2018-08-23T07:32:13.454Z,30.51
2018-08-23T07:34:51.523Z,30.33
2018-08-23T07:37:20.951Z,29.92
2018-08-23T07:39:56.970Z,29.54
2018-08-23T07:42:28.154Z,28.30
2018-08-23T07:44:57.248Z,27.91
2018-08-23T07:47:26.027Z,27.60
2018-08-23T07:49:56.704Z,28.44
2018-08-23T07:52:26.314Z,26.80
2018-08-23T07:54:54.879Z,27.04
2018-08-23T07:57:23.487Z,25.82
2018-08-23T07:59:59.355Z,25.42
2018-08-23T08:02:28.585Z,24.99
2018-08-23T08:04:57.808Z,24.84
2018-08-23T08:07:27.768Z,24.74
2018-08-23T08:09:57.084Z,23.88
2018-08-23T08:12:39.230Z,23.62
2018-08-23T08:15:11.780Z,23.10
2018-08-23T08:17:40.349Z,22.71
2018-08-23T08:20:10.410Z,22.06
2018-08-23T08:22:39.258Z,21.54
2018-08-23T08:25:13.030Z,20.84
2018-08-23T08:27:41.756Z,20.44
2018-08-23T08:30:12.174Z,20.81
2018-08-23T08:32:40.956Z,20.79
2018-08-23T08:35:23.827Z,20.38
2018-08-23T08:37:52.473Z,20.42
2018-08-23T08:40:23.582Z,19.86
2018-08-23T08:42:52.146Z,20.17
2018-08-23T08:45:20.732Z,19.78
2018-08-23T08:47:49.349Z,19.31
2018-08-23T08:50:18.006Z,18.89
2018-08-23T08:52:46.562Z,19.09
2018-08-23T08:55:16.964Z,19.13
2018-08-23T08:57:47.645Z,19.45
2018-08-23T09:00:16.067Z,19.59
2018-08-23T09:02:44.814Z,19.38
2018-08-23T09:05:13.391Z,19.93
2018-08-23T09:07:44.177Z,20.23
2018-08-23T09:10:12.761Z,20.51
2018-08-23T09:12:47.760Z,19.30
2018-08-23T09:15:16.280Z,18.39
2018-08-23T09:17:45.872Z,18.68
2018-08-23T09:20:17.792Z,19.02
2018-08-23T09:22:50.948Z,19.27
2018-08-23T09:25:26.128Z,19.83
2018-08-23T09:27:54.718Z,19.61
2018-08-23T09:30:27.559Z,19.89
2018-08-23T09:32:56.410Z,20.40
2018-08-23T09:35:29.539Z,20.80
2018-08-23T09:38:00.358Z,19.93
2018-08-23T09:40:30.013Z,19.16
2018-08-23T09:43:03.067Z,20.16
2018-08-23T09:45:32.856Z,21.12
2018-08-23T09:48:01.346Z,20.92
2018-08-23T09:50:29.962Z,21.30
2018-08-23T09:52:58.620Z,20.53
2018-08-23T09:55:30.951Z,19.50
2018-08-23T09:57:59.819Z,18.71
2018-08-23T10:00:33.941Z,18.10
2018-08-23T10:03:07.665Z,17.83
2018-08-23T10:05:47.981Z,16.95
2018-08-23T10:08:23.331Z,17.23
2018-08-23T10:10:57.017Z,18.16
2018-08-23T10:13:30.785Z,17.96
2018-08-23T10:18:10.519Z,18.74
2018-08-23T10:20:46.308Z,19.23
2018-08-23T10:23:20.271Z,19.95
2018-08-23T10:25:50.083Z,20.22
2018-08-23T10:28:25.196Z,20.42
2018-08-23T10:30:54.226Z,19.40
2018-08-23T10:33:22.755Z,19.13
2018-08-23T10:35:53.649Z,18.02
2018-08-23T10:38:23.659Z,16.98
2018-08-23T10:40:53.346Z,17.26
2018-08-23T10:43:27.176Z,15.88
2018-08-23T10:45:59.921Z,16.32
2018-08-23T10:48:28.440Z,14.95
2018-08-23T10:50:57.095Z,15.03
2018-08-23T10:53:25.707Z,13.93
2018-08-23T10:55:54.243Z,14.41
2018-08-23T10:58:22.928Z,14.12
2018-08-23T11:00:51.582Z,13.97
2018-08-23T11:03:20.144Z,13.52
2018-08-23T11:05:48.660Z,13.81
2018-08-23T11:08:20.200Z,13.40
2018-08-23T11:10:53.851Z,14.18
2018-08-23T11:13:53.070Z,15.03
2018-08-23T11:16:26.926Z,15.60
2018-08-23T11:19:00.791Z,15.79
2018-08-23T11:21:29.472Z,15.98
2018-08-23T11:23:58.253Z,16.47
2018-08-23T11:26:26.867Z,15.99
2018-08-23T11:28:55.627Z,14.34
2018-08-23T11:31:30.217Z,13.89
2018-08-23T11:33:58.850Z,13.85
2018-08-23T11:36:27.467Z,13.37
2018-08-23T11:38:56.151Z,13.71
2018-08-23T11:41:24.848Z,13.23
2018-08-23T11:43:53.485Z,13.12
2018-08-23T11:46:23.096Z,13.11
2018-08-23T11:48:51.940Z,13.04
2018-08-23T11:51:20.997Z,13.29
2018-08-23T11:53:49.736Z,14.22
2018-08-23T11:56:18.383Z,15.34
2018-08-23T11:58:46.975Z,16.26
2018-08-23T12:01:17.487Z,16.81
2018-08-23T12:03:46.409Z,17.15
2018-08-23T12:06:16.390Z,17.59
2018-08-23T12:08:45.097Z,18.29
2018-08-23T12:11:13.679Z,18.91
2018-08-23T12:13:46.793Z,19.75
2018-08-23T12:16:15.427Z,20.47
2018-08-23T12:18:44.083Z,20.61
2018-08-23T12:21:12.664Z,20.35
2018-08-23T12:23:41.246Z,20.19
2018-08-23T12:26:09.990Z,19.79
2018-08-23T12:28:43.567Z,20.60
2018-08-23T12:31:12.158Z,22.02
2018-08-23T12:33:40.684Z,22.61
2018-08-23T12:36:09.932Z,22.56
2018-08-23T12:38:43.708Z,22.29
2018-08-23T12:41:17.525Z,23.31
2018-08-23T12:43:47.791Z,23.17
2018-08-23T12:46:17.021Z,23.10
2018-08-23T12:48:46.311Z,23.28
2018-08-23T12:51:14.940Z,24.29
2018-08-23T12:53:43.588Z,24.55
2018-08-23T12:56:12.280Z,24.72
2018-08-23T12:58:41.902Z,24.58
2018-08-23T13:01:10.515Z,25.24
2018-08-23T13:03:39.101Z,25.22
2018-08-23T13:06:07.702Z,25.30
2018-08-23T13:08:36.338Z,25.34
2018-08-23T13:11:04.985Z,25.43
2018-08-23T13:13:33.436Z,26.28
2018-08-23T13:16:02.023Z,25.78
2018-08-23T13:18:30.567Z,26.55
2018-08-23T13:20:59.084Z,26.93
2018-08-23T13:23:27.806Z,27.23
2018-08-23T13:25:57.505Z,26.67
2018-08-23T13:28:27.347Z,27.30
2018-08-23T13:30:55.875Z,27.67
2018-08-23T13:33:25.652Z,28.09
2018-08-23T13:35:54.223Z,27.47
2018-08-23T13:38:22.714Z,28.35
2018-08-23T13:40:51.300Z,27.50
2018-08-23T13:43:19.880Z,28.33
2018-08-23T13:45:48.683Z,28.57
2018-08-23T13:48:17.624Z,28.73
2018-08-23T13:50:46.176Z,28.59
2018-08-23T13:53:14.754Z,28.06
2018-08-23T13:55:43.354Z,28.37
2018-08-23T13:58:11.877Z,28.16
2018-08-23T14:00:41.557Z,27.91
2018-08-23T14:03:10.947Z,29.08
2018-08-23T14:05:40.627Z,28.66
2018-08-23T14:08:09.605Z,28.83
2018-08-23T14:10:38.146Z,29.29
2018-08-23T14:13:06.753Z,29.65
2018-08-23T14:15:40.479Z,29.55
2018-08-23T14:18:09.123Z,29.99
2018-08-23T14:20:37.728Z,29.51
2018-08-23T14:23:06.205Z,29.30
2018-08-23T14:25:34.742Z,29.88
2018-08-23T14:28:03.234Z,30.16
2018-08-23T14:30:31.743Z,29.51
2018-08-23T14:33:00.372Z,30.27
2018-08-23T14:35:29.084Z,29.51
2018-08-23T14:37:57.681Z,29.63
2018-08-23T14:40:26.239Z,30.21
2018-08-23T14:42:54.755Z,30.10
2018-08-23T14:45:28.552Z,30.10
2018-08-23T14:48:02.484Z,30.95
2018-08-23T14:50:31.354Z,30.34
2018-08-23T14:52:59.879Z,30.29
2018-08-23T14:55:33.506Z,30.30
2018-08-23T14:58:02.155Z,30.52
2018-08-23T15:00:31.173Z,31.62
2018-08-23T15:02:59.937Z,30.63
2018-08-23T15:05:28.600Z,30.70
2018-08-23T15:07:57.172Z,31.44
2018-08-23T15:10:25.916Z,31.94
2018-08-23T15:12:54.525Z,31.55
2018-08-23T15:15:28.478Z,32.47
2018-08-23T15:17:57.215Z,32.46
2018-08-23T15:20:25.807Z,32.20
2018-08-23T15:22:54.586Z,32.50
2018-08-23T15:25:23.311Z,31.56
2018-08-23T15:27:51.875Z,32.24
2018-08-23T15:30:20.513Z,32.95
2018-08-23T15:32:49.182Z,32.66
2018-08-23T15:35:17.822Z,33.57
2018-08-23T15:37:46.428Z,33.25
2018-08-23T15:40:15.076Z,33.90
2018-08-23T15:42:43.649Z,32.90
2018-08-23T15:45:12.243Z,32.60
2018-08-23T15:47:40.963Z,33.49
2018-08-23T15:50:09.694Z,33.91
2018-08-23T15:52:38.383Z,34.07
2018-08-23T15:55:07.377Z,33.92
2018-08-23T15:57:38.058Z,33.51
2018-08-23T16:00:07.256Z,32.97
2018-08-23T16:02:35.817Z,33.39
2018-08-23T16:05:04.440Z,33.46
2018-08-23T16:07:33.033Z,33.26
2018-08-23T16:10:02.081Z,33.46
2018-08-23T16:12:30.733Z,33.62
2018-08-23T16:14:59.264Z,33.62
2018-08-23T16:17:32.886Z,33.47
2018-08-23T16:20:06.818Z,33.90
2018-08-23T16:22:35.431Z,33.73
2018-08-23T16:25:04.058Z,33.84
2018-08-23T16:27:32.659Z,34.46
2018-08-23T16:30:01.171Z,34.39
2018-08-23T16:32:34.127Z,34.63
2018-08-23T16:35:02.777Z,34.58
2018-08-23T16:37:32.342Z,34.85
2018-08-23T16:40:01.046Z,34.83
2018-08-23T16:42:30.235Z,34.96
2018-08-23T16:44:58.903Z,35.02
2018-08-23T16:47:27.730Z,35.28
2018-08-23T16:49:56.493Z,35.25
2018-08-23T16:52:25.200Z,35.32
2018-08-23T16:54:53.822Z,35.64
2018-08-23T16:57:22.428Z,35.53
2018-08-23T16:59:51.139Z,35.91
2018-08-23T17:02:19.886Z,35.86
2018-08-23T17:04:49.263Z,36.11
2018-08-23T17:07:18.351Z,35.99
2018-08-23T17:09:47.094Z,36.28
2018-08-23T17:12:16.102Z,36.19
2018-08-23T17:14:44.782Z,36.79
2018-08-23T17:17:18.717Z,36.63
2018-08-23T17:22:31.195Z,37.18
2018-08-23T17:25:00.146Z,36.82
2018-08-23T17:27:29.012Z,37.08
2018-08-23T17:29:57.807Z,37.12
2018-08-23T17:32:26.475Z,36.91
2018-08-23T17:34:55.751Z,37.24
2018-08-23T17:37:24.464Z,37.14
2018-08-23T17:39:53.530Z,37.69
2018-08-23T17:42:26.518Z,37.44
2018-08-23T17:44:55.154Z,37.46
2018-08-23T17:47:24.217Z,37.59
2018-08-23T17:49:53.341Z,37.29
2018-08-23T17:52:22.093Z,38.55
2018-08-23T17:54:51.014Z,37.87
2018-08-23T17:57:19.627Z,38.65
2018-08-23T17:59:48.433Z,38.72
2018-08-23T18:02:17.773Z,38.43
2018-08-23T18:04:46.638Z,38.23
2018-08-23T18:07:15.331Z,39.28
2018-08-23T18:09:44.035Z,38.05
2018-08-23T18:12:12.843Z,39.16
2018-08-23T18:14:41.590Z,39.64
2018-08-23T18:17:10.525Z,39.93
2018-08-23T18:19:39.353Z,39.95
2018-08-23T18:22:08.004Z,40.02
2018-08-23T18:24:36.733Z,39.74
2018-08-23T18:27:05.580Z,39.57
2018-08-23T18:29:34.324Z,40.45
2018-08-23T18:32:03.103Z,39.95
2018-08-23T18:34:31.956Z,40.01
2018-08-23T18:37:00.570Z,41.04
2018-08-23T18:39:29.159Z,40.75
2018-08-23T18:41:57.856Z,41.13
2018-08-23T18:44:26.456Z,40.54
2018-08-23T18:46:55.178Z,40.65
2018-08-23T18:49:23.794Z,40.92
2018-08-23T18:51:52.315Z,40.54
2018-08-23T18:54:21.017Z,40.76
2018-08-23T18:56:49.737Z,41.62
2018-08-23T18:59:18.484Z,41.49
2018-08-23T19:01:47.227Z,41.04
2018-08-23T19:04:16.031Z,41.98
2018-08-23T19:06:44.623Z,41.99
2018-08-23T19:09:14.314Z,41.98
2018-08-23T19:11:43.237Z,42.19
2018-08-23T19:14:11.946Z,41.57
2018-08-23T19:16:45.635Z,42.44
2018-08-23T19:19:14.340Z,41.62
2018-08-23T19:21:43.395Z,42.26
2018-08-23T19:24:12.384Z,41.70
2018-08-23T19:26:41.890Z,41.88
2018-08-23T19:29:10.947Z,42.02
2018-08-23T19:31:39.675Z,42.08
2018-08-23T19:34:08.446Z,43.10
2018-08-23T19:36:37.267Z,42.64
2018-08-23T19:39:12.582Z,42.39
2018-08-23T19:41:41.324Z,42.43
2018-08-23T19:44:09.923Z,42.54
2018-08-23T19:46:43.835Z,43.26
2018-08-23T19:49:17.698Z,43.47
2018-08-23T19:51:46.320Z,42.90
2018-08-23T19:54:15.025Z,43.23
2018-08-23T19:56:43.688Z,43.91
2018-08-23T19:59:12.442Z,43.71
2018-08-23T20:01:41.033Z,43.26
2018-08-23T20:04:09.660Z,43.53
2018-08-23T20:06:38.380Z,43.83
2018-08-23T20:09:08.785Z,43.86
2018-08-23T20:11:37.325Z,43.92
2018-08-23T20:14:05.936Z,43.97
2018-08-23T20:16:34.588Z,44.07
2018-08-23T20:19:03.993Z,45.32
2018-08-23T20:21:32.549Z,44.95
2018-08-23T20:24:01.218Z,44.71
2018-08-23T20:26:29.900Z,44.35
2018-08-23T20:28:59.293Z,45.01
2018-08-23T20:31:28.102Z,44.49
2018-08-23T20:33:58.359Z,45.06
2018-08-23T20:36:28.031Z,44.84
2018-08-23T20:38:57.106Z,45.05
2018-08-23T20:41:30.529Z,44.93
2018-08-23T20:43:59.183Z,44.99
2018-08-23T20:46:27.819Z,44.54
2018-08-23T20:48:56.322Z,45.19
2018-08-23T20:51:24.838Z,45.15
2018-08-23T20:53:53.472Z,45.06
2018-08-23T20:56:21.955Z,45.12
2018-08-23T20:58:50.542Z,45.17
2018-08-23T21:01:19.078Z,44.76
2018-08-23T21:03:47.761Z,45.44
2018-08-23T21:06:16.388Z,45.50
2018-08-23T21:08:45.023Z,44.86
2018-08-23T21:11:13.598Z,44.77
2018-08-23T21:13:42.191Z,44.79
2018-08-23T21:16:10.915Z,45.82
2018-08-23T21:18:39.553Z,46.07
2018-08-23T21:21:08.293Z,45.32
2018-08-23T21:23:36.940Z,45.62
2018-08-23T21:26:05.627Z,45.42
2018-08-23T21:28:34.305Z,45.25
2018-08-23T21:31:03.608Z,45.26
2018-08-23T21:33:32.159Z,46.25
2018-08-23T21:36:00.768Z,45.24
2018-08-23T21:38:29.410Z,45.63
2018-08-23T21:40:58.096Z,45.53
2018-08-23T21:43:26.654Z,45.51
2018-08-23T21:45:55.190Z,46.73
2018-08-23T21:48:23.844Z,46.25
2018-08-23T21:50:52.485Z,45.64
2018-08-23T21:53:21.059Z,45.78
2018-08-23T21:55:49.710Z,46.61
2018-08-23T21:58:18.293Z,46.38
2018-08-23T22:00:51.985Z,46.18
2018-08-23T22:03:20.579Z,46.64
2018-08-23T22:05:49.376Z,47.26
2018-08-23T22:08:17.969Z,46.36
2018-08-23T22:10:46.551Z,46.87
2018-08-23T22:13:15.154Z,46.82
2018-08-23T22:15:46.744Z,46.95
2018-08-23T22:18:15.859Z,47.08
2018-08-23T22:20:44.524Z,46.43
2018-08-23T22:23:13.543Z,46.89
2018-08-23T22:25:42.267Z,47.04
2018-08-23T22:28:11.306Z,46.70
2018-08-23T22:30:40.607Z,46.77
2018-08-23T22:33:10.300Z,47.43
2018-08-23T22:35:38.956Z,46.59
2018-08-23T22:38:07.922Z,47.53
2018-08-23T22:40:36.924Z,47.57
2018-08-23T22:43:05.578Z,47.27
2018-08-23T22:45:34.212Z,47.36
2018-08-23T22:48:02.864Z,47.69
2018-08-23T22:50:31.594Z,47.71
2018-08-23T22:53:00.158Z,47.00
2018-08-23T22:55:28.827Z,47.54
2018-08-23T22:57:57.652Z,47.54
2018-08-23T23:00:42.632Z,46.91
2018-08-23T23:03:16.537Z,47.92
2018-08-23T23:05:45.303Z,47.40
2018-08-23T23:08:13.909Z,48.07
2018-08-23T23:10:42.706Z,47.79
2018-08-23T23:13:11.356Z,48.00
2018-08-23T23:15:40.016Z,48.05
2018-08-23T23:18:08.626Z,47.11
2018-08-23T23:20:37.283Z,47.26
2018-08-23T23:23:05.923Z,47.86
2018-08-23T23:25:34.558Z,47.77
2018-08-23T23:28:03.125Z,47.23
2018-08-23T23:30:31.711Z,47.64
2018-08-23T23:33:00.293Z,47.57
2018-08-23T23:35:28.880Z,46.86
2018-08-23T23:37:57.446Z,47.61
2018-08-23T23:40:26.010Z,46.75
2018-08-23T23:42:54.673Z,47.98
2018-08-23T23:45:23.328Z,47.95
2018-08-23T23:47:51.947Z,47.84
2018-08-23T23:50:20.669Z,47.78
2018-08-23T23:52:49.269Z,47.93
2018-08-23T23:55:17.911Z,47.33
2018-08-23T23:57:46.519Z,47.82
